sensor_id;sensor_type;location;lat;lon;timestamp;temperature;humidity
4518;DHT22;2271;49.464;11.070;2022-07-31T00:00:20;20.20;99.90
4518;DHT22;2271;49.464;11.070;2022-07-31T00:02:46;20.20;99.90
4518;DHT22;2271;49.464;11.070;2022-07-31T00:05:12;20.20;99.90
4518;DHT22;2271;49.464;11.070;2022-07-31T00:07:38;20.20;99.90
4518;DHT22;2271;49.464;11.070;2022-07-31T00:10:04;20.10;99.90
4518;DHT22;2271;49.464;11.070;2022-07-31T00:12:30;20.10;99.90
4518;DHT22;2271;49.464;11.070;2022-07-31T00:14:56;20.10;99.90
4518;DHT22;2271;49.464;11.070;2022-07-31T00:17:21;20.10;99.90
4518;DHT22;2271;49.464;11.070;2022-07-31T00:19:47;20.10;99.90
4518;DHT22;2271;49.464;11.070;2022-07-31T00:22:13;20.10;99.90
4518;DHT22;2271;49.464;11.070;2022-07-31T00:24:39;20.10;99.90
4518;DHT22;2271;49.464;11.070;2022-07-31T00:27:05;20.00;99.90
4518;DHT22;2271;49.464;11.070;2022-07-31T00:29:30;20.00;99.90
4518;DHT22;2271;49.464;11.070;2022-07-31T00:31:56;19.90;99.90
4518;DHT22;2271;49.464;11.070;2022-07-31T00:34:22;19.90;99.90
4518;DHT22;2271;49.464;11.070;2022-07-31T00:36:48;19.90;99.90
4518;DHT22;2271;49.464;11.070;2022-07-31T00:39:14;19.90;99.90
4518;DHT22;2271;49.464;11.070;2022-07-31T00:41:42;19.90;99.90
4518;DHT22;2271;49.464;11.070;2022-07-31T00:44:11;19.90;99.90
4518;DHT22;2271;49.464;11.070;2022-07-31T00:46:38;19.90;99.90
4518;DHT22;2271;49.464;11.070;2022-07-31T00:49:04;19.90;99.90
4518;DHT22;2271;49.464;11.070;2022-07-31T00:51:32;19.80;99.90
4518;DHT22;2271;49.464;11.070;2022-07-31T00:53:57;19.80;99.90
4518;DHT22;2271;49.464;11.070;2022-07-31T00:56:23;19.80;99.90
4518;DHT22;2271;49.464;11.070;2022-07-31T00:58:50;19.70;99.90
4518;DHT22;2271;49.464;11.070;2022-07-31T01:01:16;19.70;99.90
4518;DHT22;2271;49.464;11.070;2022-07-31T01:03:42;19.70;99.90
4518;DHT22;2271;49.464;11.070;2022-07-31T01:06:08;19.70;99.90
4518;DHT22;2271;49.464;11.070;2022-07-31T01:08:34;19.70;99.90
4518;DHT22;2271;49.464;11.070;2022-07-31T01:11:12;19.70;99.90
4518;DHT22;2271;49.464;11.070;2022-07-31T01:13:44;19.60;99.90
4518;DHT22;2271;49.464;11.070;2022-07-31T01:16:13;19.60;99.90
4518;DHT22;2271;49.464;11.070;2022-07-31T01:18:40;19.60;99.90
4518;DHT22;2271;49.464;11.070;2022-07-31T01:21:10;19.50;99.90
4518;DHT22;2271;49.464;11.070;2022-07-31T01:23:48;19.40;99.90
4518;DHT22;2271;49.464;11.070;2022-07-31T01:29:07;19.40;99.90
4518;DHT22;2271;49.464;11.070;2022-07-31T01:31:59;19.30;99.90
4518;DHT22;2271;49.464;11.070;2022-07-31T01:34:48;19.30;99.90
4518;DHT22;2271;49.464;11.070;2022-07-31T01:37:29;19.30;99.90
4518;DHT22;2271;49.464;11.070;2022-07-31T01:40:11;19.30;99.90
4518;DHT22;2271;49.464;11.070;2022-07-31T01:42:40;19.20;99.90
4518;DHT22;2271;49.464;11.070;2022-07-31T01:45:07;19.20;99.90
4518;DHT22;2271;49.464;11.070;2022-07-31T01:47:36;19.20;99.90
4518;DHT22;2271;49.464;11.070;2022-07-31T01:50:04;19.20;99.90
4518;DHT22;2271;49.464;11.070;2022-07-31T01:52:33;19.20;99.90
4518;DHT22;2271;49.464;11.070;2022-07-31T01:55:02;19.20;99.90
4518;DHT22;2271;49.464;11.070;2022-07-31T01:57:29;19.20;99.90
4518;DHT22;2271;49.464;11.070;2022-07-31T02:00:00;19.10;99.90
4518;DHT22;2271;49.464;11.070;2022-07-31T02:02:27;19.20;99.90
4518;DHT22;2271;49.464;11.070;2022-07-31T02:04:54;19.30;99.90
4518;DHT22;2271;49.464;11.070;2022-07-31T02:07:21;19.20;99.90
4518;DHT22;2271;49.464;11.070;2022-07-31T02:09:49;19.20;99.90
4518;DHT22;2271;49.464;11.070;2022-07-31T02:12:16;19.20;99.90
4518;DHT22;2271;49.464;11.070;2022-07-31T02:14:42;19.20;99.90
4518;DHT22;2271;49.464;11.070;2022-07-31T02:17:10;19.20;99.90
4518;DHT22;2271;49.464;11.070;2022-07-31T02:19:39;19.20;99.90
4518;DHT22;2271;49.464;11.070;2022-07-31T02:22:06;19.30;99.90
4518;DHT22;2271;49.464;11.070;2022-07-31T02:24:32;19.30;99.90
4518;DHT22;2271;49.464;11.070;2022-07-31T02:26:59;19.20;99.90
4518;DHT22;2271;49.464;11.070;2022-07-31T02:29:27;19.20;99.90
4518;DHT22;2271;49.464;11.070;2022-07-31T02:31:54;19.20;99.90
4518;DHT22;2271;49.464;11.070;2022-07-31T02:34:22;19.00;99.90
4518;DHT22;2271;49.464;11.070;2022-07-31T02:36:49;18.90;99.90
4518;DHT22;2271;49.464;11.070;2022-07-31T02:39:16;18.90;99.90
4518;DHT22;2271;49.464;11.070;2022-07-31T02:41:42;19.00;99.90
4518;DHT22;2271;49.464;11.070;2022-07-31T02:44:10;18.90;99.90
4518;DHT22;2271;49.464;11.070;2022-07-31T02:46:37;18.90;99.90
4518;DHT22;2271;49.464;11.070;2022-07-31T02:49:03;18.90;99.90
4518;DHT22;2271;49.464;11.070;2022-07-31T02:51:30;18.80;99.90
4518;DHT22;2271;49.464;11.070;2022-07-31T02:53:56;18.70;99.90
4518;DHT22;2271;49.464;11.070;2022-07-31T02:56:23;18.80;99.90
4518;DHT22;2271;49.464;11.070;2022-07-31T02:58:49;18.60;99.90
4518;DHT22;2271;49.464;11.070;2022-07-31T03:01:15;18.50;99.90
4518;DHT22;2271;49.464;11.070;2022-07-31T03:03:41;18.40;99.90
4518;DHT22;2271;49.464;11.070;2022-07-31T03:06:07;18.30;99.90
4518;DHT22;2271;49.464;11.070;2022-07-31T03:08:33;18.40;99.90
4518;DHT22;2271;49.464;11.070;2022-07-31T03:10:59;18.30;99.90
4518;DHT22;2271;49.464;11.070;2022-07-31T03:13:27;18.20;99.90
4518;DHT22;2271;49.464;11.070;2022-07-31T03:15:54;18.20;99.90
4518;DHT22;2271;49.464;11.070;2022-07-31T03:18:20;18.20;99.90
4518;DHT22;2271;49.464;11.070;2022-07-31T03:20:46;18.20;99.90
4518;DHT22;2271;49.464;11.070;2022-07-31T03:23:18;18.30;99.90
4518;DHT22;2271;49.464;11.070;2022-07-31T03:25:47;18.30;99.90
4518;DHT22;2271;49.464;11.070;2022-07-31T03:28:14;18.20;99.90
4518;DHT22;2271;49.464;11.070;2022-07-31T03:30:39;18.30;99.90
4518;DHT22;2271;49.464;11.070;2022-07-31T03:33:05;18.30;99.90
4518;DHT22;2271;49.464;11.070;2022-07-31T03:35:31;18.30;99.90
4518;DHT22;2271;49.464;11.070;2022-07-31T03:37:58;18.30;99.90
4518;DHT22;2271;49.464;11.070;2022-07-31T03:40:24;18.30;99.90
4518;DHT22;2271;49.464;11.070;2022-07-31T03:42:51;18.20;99.90
4518;DHT22;2271;49.464;11.070;2022-07-31T03:45:18;18.20;99.90
4518;DHT22;2271;49.464;11.070;2022-07-31T03:47:45;18.20;99.90
4518;DHT22;2271;49.464;11.070;2022-07-31T03:50:11;18.10;99.90
4518;DHT22;2271;49.464;11.070;2022-07-31T03:52:37;18.10;99.90
4518;DHT22;2271;49.464;11.070;2022-07-31T03:55:03;18.10;99.90
4518;DHT22;2271;49.464;11.070;2022-07-31T03:57:29;18.10;99.90
4518;DHT22;2271;49.464;11.070;2022-07-31T03:59:56;18.20;99.90
4518;DHT22;2271;49.464;11.070;2022-07-31T04:02:26;18.20;99.90
4518;DHT22;2271;49.464;11.070;2022-07-31T04:04:52;18.20;99.90
4518;DHT22;2271;49.464;11.070;2022-07-31T04:07:17;18.20;99.90
4518;DHT22;2271;49.464;11.070;2022-07-31T04:09:43;18.10;99.90
4518;DHT22;2271;49.464;11.070;2022-07-31T04:12:09;18.20;99.90
4518;DHT22;2271;49.464;11.070;2022-07-31T04:14:35;18.10;99.90
4518;DHT22;2271;49.464;11.070;2022-07-31T04:17:00;18.10;99.90
4518;DHT22;2271;49.464;11.070;2022-07-31T04:19:26;18.00;99.90
4518;DHT22;2271;49.464;11.070;2022-07-31T04:21:56;18.10;99.90
4518;DHT22;2271;49.464;11.070;2022-07-31T04:24:22;18.10;99.90
4518;DHT22;2271;49.464;11.070;2022-07-31T04:26:48;18.10;99.90
4518;DHT22;2271;49.464;11.070;2022-07-31T04:29:14;18.00;99.90
4518;DHT22;2271;49.464;11.070;2022-07-31T04:31:39;18.00;99.90
4518;DHT22;2271;49.464;11.070;2022-07-31T04:34:05;18.00;99.90
4518;DHT22;2271;49.464;11.070;2022-07-31T04:36:31;18.00;99.90
4518;DHT22;2271;49.464;11.070;2022-07-31T04:38:58;18.00;99.90
4518;DHT22;2271;49.464;11.070;2022-07-31T04:41:23;18.10;99.90
4518;DHT22;2271;49.464;11.070;2022-07-31T04:43:49;18.10;99.90
4518;DHT22;2271;49.464;11.070;2022-07-31T04:46:15;18.00;99.90
4518;DHT22;2271;49.464;11.070;2022-07-31T04:48:40;18.10;99.90
4518;DHT22;2271;49.464;11.070;2022-07-31T04:51:06;18.10;99.90
4518;DHT22;2271;49.464;11.070;2022-07-31T04:53:31;18.20;99.90
4518;DHT22;2271;49.464;11.070;2022-07-31T04:55:57;18.20;99.90
4518;DHT22;2271;49.464;11.070;2022-07-31T04:58:41;18.30;99.90
4518;DHT22;2271;49.464;11.070;2022-07-31T05:01:07;18.50;99.90
4518;DHT22;2271;49.464;11.070;2022-07-31T05:03:32;18.50;99.90
4518;DHT22;2271;49.464;11.070;2022-07-31T05:06:08;18.60;99.90
4518;DHT22;2271;49.464;11.070;2022-07-31T05:08:34;18.70;99.90
4518;DHT22;2271;49.464;11.070;2022-07-31T05:11:00;18.80;99.90
4518;DHT22;2271;49.464;11.070;2022-07-31T05:13:44;18.80;99.90
4518;DHT22;2271;49.464;11.070;2022-07-31T05:16:10;18.80;99.90
4518;DHT22;2271;49.464;11.070;2022-07-31T05:18:36;18.80;99.90
4518;DHT22;2271;49.464;11.070;2022-07-31T05:21:02;18.90;99.90
4518;DHT22;2271;49.464;11.070;2022-07-31T05:23:28;18.90;99.90
4518;DHT22;2271;49.464;11.070;2022-07-31T05:25:53;19.00;99.90
4518;DHT22;2271;49.464;11.070;2022-07-31T05:28:19;19.10;99.90
4518;DHT22;2271;49.464;11.070;2022-07-31T05:30:45;19.20;99.90
4518;DHT22;2271;49.464;11.070;2022-07-31T05:33:10;19.10;99.90
4518;DHT22;2271;49.464;11.070;2022-07-31T05:35:36;19.20;99.90
4518;DHT22;2271;49.464;11.070;2022-07-31T05:38:01;19.10;99.90
4518;DHT22;2271;49.464;11.070;2022-07-31T05:40:27;19.20;99.90
4518;DHT22;2271;49.464;11.070;2022-07-31T05:42:53;19.20;99.90
4518;DHT22;2271;49.464;11.070;2022-07-31T05:45:19;19.20;99.90
4518;DHT22;2271;49.464;11.070;2022-07-31T05:47:45;19.10;99.90
4518;DHT22;2271;49.464;11.070;2022-07-31T05:50:10;19.10;99.90
4518;DHT22;2271;49.464;11.070;2022-07-31T05:52:37;19.10;99.90
4518;DHT22;2271;49.464;11.070;2022-07-31T05:55:03;19.10;99.90
4518;DHT22;2271;49.464;11.070;2022-07-31T05:57:29;19.10;99.90
4518;DHT22;2271;49.464;11.070;2022-07-31T05:59:54;19.20;99.90
4518;DHT22;2271;49.464;11.070;2022-07-31T06:02:20;19.30;99.90
4518;DHT22;2271;49.464;11.070;2022-07-31T06:04:46;19.40;99.90
4518;DHT22;2271;49.464;11.070;2022-07-31T06:07:11;19.50;99.90
4518;DHT22;2271;49.464;11.070;2022-07-31T06:09:37;19.50;99.90
4518;DHT22;2271;49.464;11.070;2022-07-31T06:12:03;19.60;99.90
4518;DHT22;2271;49.464;11.070;2022-07-31T06:14:28;19.60;99.90
4518;DHT22;2271;49.464;11.070;2022-07-31T06:16:54;19.70;99.90
4518;DHT22;2271;49.464;11.070;2022-07-31T06:19:20;19.60;99.90
4518;DHT22;2271;49.464;11.070;2022-07-31T06:21:45;19.60;99.90
4518;DHT22;2271;49.464;11.070;2022-07-31T06:24:11;19.60;99.90
4518;DHT22;2271;49.464;11.070;2022-07-31T06:26:37;19.60;99.90
4518;DHT22;2271;49.464;11.070;2022-07-31T06:29:03;19.60;99.90
4518;DHT22;2271;49.464;11.070;2022-07-31T06:31:29;19.60;99.90
4518;DHT22;2271;49.464;11.070;2022-07-31T06:33:54;19.60;99.90
4518;DHT22;2271;49.464;11.070;2022-07-31T06:36:20;19.60;99.90
4518;DHT22;2271;49.464;11.070;2022-07-31T06:38:45;19.60;99.90
4518;DHT22;2271;49.464;11.070;2022-07-31T06:41:11;19.70;99.90
4518;DHT22;2271;49.464;11.070;2022-07-31T06:43:57;19.80;99.90
4518;DHT22;2271;49.464;11.070;2022-07-31T06:46:23;19.90;99.90
4518;DHT22;2271;49.464;11.070;2022-07-31T06:48:48;20.10;99.90
4518;DHT22;2271;49.464;11.070;2022-07-31T06:51:14;20.30;99.90
4518;DHT22;2271;49.464;11.070;2022-07-31T06:53:40;20.40;99.90
4518;DHT22;2271;49.464;11.070;2022-07-31T06:56:05;20.50;99.90
4518;DHT22;2271;49.464;11.070;2022-07-31T06:58:31;20.60;99.90
4518;DHT22;2271;49.464;11.070;2022-07-31T07:00:57;20.70;99.90
4518;DHT22;2271;49.464;11.070;2022-07-31T07:03:23;20.80;99.90
4518;DHT22;2271;49.464;11.070;2022-07-31T07:05:48;20.80;99.90
4518;DHT22;2271;49.464;11.070;2022-07-31T07:08:14;20.80;99.90
4518;DHT22;2271;49.464;11.070;2022-07-31T07:10:40;21.00;99.90
4518;DHT22;2271;49.464;11.070;2022-07-31T07:13:05;21.30;99.90
4518;DHT22;2271;49.464;11.070;2022-07-31T07:15:31;21.50;99.90
4518;DHT22;2271;49.464;11.070;2022-07-31T07:17:56;22.00;99.90
4518;DHT22;2271;49.464;11.070;2022-07-31T07:20:22;22.40;99.90
4518;DHT22;2271;49.464;11.070;2022-07-31T07:22:48;22.80;99.90
4518;DHT22;2271;49.464;11.070;2022-07-31T07:25:13;22.80;99.90
4518;DHT22;2271;49.464;11.070;2022-07-31T07:27:39;22.60;99.90
4518;DHT22;2271;49.464;11.070;2022-07-31T07:30:05;22.50;99.90
4518;DHT22;2271;49.464;11.070;2022-07-31T07:32:31;22.40;99.90
4518;DHT22;2271;49.464;11.070;2022-07-31T07:34:56;22.30;99.90
4518;DHT22;2271;49.464;11.070;2022-07-31T07:37:22;22.20;99.90
4518;DHT22;2271;49.464;11.070;2022-07-31T07:39:48;22.30;99.90
4518;DHT22;2271;49.464;11.070;2022-07-31T07:42:13;22.30;99.90
4518;DHT22;2271;49.464;11.070;2022-07-31T07:44:39;22.50;99.90
4518;DHT22;2271;49.464;11.070;2022-07-31T07:47:05;22.70;99.90
4518;DHT22;2271;49.464;11.070;2022-07-31T07:49:30;22.90;99.90
4518;DHT22;2271;49.464;11.070;2022-07-31T07:51:56;23.00;99.90
4518;DHT22;2271;49.464;11.070;2022-07-31T07:54:22;23.20;99.90
4518;DHT22;2271;49.464;11.070;2022-07-31T07:56:47;23.30;99.90
4518;DHT22;2271;49.464;11.070;2022-07-31T07:59:13;23.40;99.90
4518;DHT22;2271;49.464;11.070;2022-07-31T08:01:39;23.50;99.90
4518;DHT22;2271;49.464;11.070;2022-07-31T08:04:05;23.80;99.90
4518;DHT22;2271;49.464;11.070;2022-07-31T08:06:30;24.20;99.90
4518;DHT22;2271;49.464;11.070;2022-07-31T08:08:56;24.40;99.90
4518;DHT22;2271;49.464;11.070;2022-07-31T08:11:22;24.70;99.90
4518;DHT22;2271;49.464;11.070;2022-07-31T08:13:48;25.00;99.90
4518;DHT22;2271;49.464;11.070;2022-07-31T08:16:13;25.20;99.90
4518;DHT22;2271;49.464;11.070;2022-07-31T08:18:39;25.40;99.90
4518;DHT22;2271;49.464;11.070;2022-07-31T08:21:05;25.40;99.90
4518;DHT22;2271;49.464;11.070;2022-07-31T08:23:31;25.50;99.90
4518;DHT22;2271;49.464;11.070;2022-07-31T08:25:56;25.60;99.90
4518;DHT22;2271;49.464;11.070;2022-07-31T08:28:25;25.80;99.90
4518;DHT22;2271;49.464;11.070;2022-07-31T08:30:51;25.90;99.90
4518;DHT22;2271;49.464;11.070;2022-07-31T08:33:16;25.80;99.90
4518;DHT22;2271;49.464;11.070;2022-07-31T08:35:42;25.70;99.90
4518;DHT22;2271;49.464;11.070;2022-07-31T08:38:08;25.80;99.90
4518;DHT22;2271;49.464;11.070;2022-07-31T08:40:37;26.00;99.90
4518;DHT22;2271;49.464;11.070;2022-07-31T08:43:03;26.40;99.90
4518;DHT22;2271;49.464;11.070;2022-07-31T08:45:30;26.50;99.90
4518;DHT22;2271;49.464;11.070;2022-07-31T08:47:58;26.50;99.90
4518;DHT22;2271;49.464;11.070;2022-07-31T08:50:25;26.50;99.90
4518;DHT22;2271;49.464;11.070;2022-07-31T08:52:53;26.20;99.90
4518;DHT22;2271;49.464;11.070;2022-07-31T08:55:21;26.20;99.90
4518;DHT22;2271;49.464;11.070;2022-07-31T08:57:47;26.30;99.90
4518;DHT22;2271;49.464;11.070;2022-07-31T09:00:14;26.50;99.90
4518;DHT22;2271;49.464;11.070;2022-07-31T09:02:42;26.80;99.90
4518;DHT22;2271;49.464;11.070;2022-07-31T09:05:08;27.10;99.90
4518;DHT22;2271;49.464;11.070;2022-07-31T09:07:34;27.20;99.90
4518;DHT22;2271;49.464;11.070;2022-07-31T09:10:01;27.40;99.90
4518;DHT22;2271;49.464;11.070;2022-07-31T09:12:31;27.40;99.90
4518;DHT22;2271;49.464;11.070;2022-07-31T09:14:57;27.70;99.90
4518;DHT22;2271;49.464;11.070;2022-07-31T09:17:34;27.90;99.90
4518;DHT22;2271;49.464;11.070;2022-07-31T09:20:00;28.00;99.90
4518;DHT22;2271;49.464;11.070;2022-07-31T09:22:29;28.10;99.90
4518;DHT22;2271;49.464;11.070;2022-07-31T09:25:09;28.20;99.90
4518;DHT22;2271;49.464;11.070;2022-07-31T09:27:36;28.20;99.90
4518;DHT22;2271;49.464;11.070;2022-07-31T09:30:03;28.30;99.90
4518;DHT22;2271;49.464;11.070;2022-07-31T09:32:29;28.30;99.90
4518;DHT22;2271;49.464;11.070;2022-07-31T09:35:05;28.40;99.90
4518;DHT22;2271;49.464;11.070;2022-07-31T09:37:31;28.50;99.90
4518;DHT22;2271;49.464;11.070;2022-07-31T09:39:57;28.50;99.80
4518;DHT22;2271;49.464;11.070;2022-07-31T09:42:34;28.60;99.60
4518;DHT22;2271;49.464;11.070;2022-07-31T09:45:01;28.70;99.40
4518;DHT22;2271;49.464;11.070;2022-07-31T09:47:29;28.70;98.40
4518;DHT22;2271;49.464;11.070;2022-07-31T09:50:03;28.30;97.90
4518;DHT22;2271;49.464;11.070;2022-07-31T09:52:31;28.20;99.40
4518;DHT22;2271;49.464;11.070;2022-07-31T09:55:14;28.40;99.20
4518;DHT22;2271;49.464;11.070;2022-07-31T09:57:56;28.70;98.40
4518;DHT22;2271;49.464;11.070;2022-07-31T10:00:23;29.00;97.80
4518;DHT22;2271;49.464;11.070;2022-07-31T10:02:52;28.90;97.40
4518;DHT22;2271;49.464;11.070;2022-07-31T10:05:18;29.10;97.50
4518;DHT22;2271;49.464;11.070;2022-07-31T10:07:46;29.10;97.00
4518;DHT22;2271;49.464;11.070;2022-07-31T10:10:13;29.00;97.30
4518;DHT22;2271;49.464;11.070;2022-07-31T10:12:42;28.60;96.50
4518;DHT22;2271;49.464;11.070;2022-07-31T10:15:11;28.20;97.30
4518;DHT22;2271;49.464;11.070;2022-07-31T10:17:42;28.20;98.40
4518;DHT22;2271;49.464;11.070;2022-07-31T10:20:13;28.30;97.70
4518;DHT22;2271;49.464;11.070;2022-07-31T10:22:44;28.30;96.90
4518;DHT22;2271;49.464;11.070;2022-07-31T10:25:16;28.30;97.10
4518;DHT22;2271;49.464;11.070;2022-07-31T10:27:43;28.10;96.60
4518;DHT22;2271;49.464;11.070;2022-07-31T10:30:10;28.50;97.20
4518;DHT22;2271;49.464;11.070;2022-07-31T10:32:36;28.70;94.60
4518;DHT22;2271;49.464;11.070;2022-07-31T10:35:05;28.50;95.80
4518;DHT22;2271;49.464;11.070;2022-07-31T10:37:57;28.60;95.20
4518;DHT22;2271;49.464;11.070;2022-07-31T10:40:28;28.70;95.20
4518;DHT22;2271;49.464;11.070;2022-07-31T10:43:19;28.70;95.20
4518;DHT22;2271;49.464;11.070;2022-07-31T10:45:47;28.80;94.60
4518;DHT22;2271;49.464;11.070;2022-07-31T10:48:13;28.50;93.10
4518;DHT22;2271;49.464;11.070;2022-07-31T10:50:39;28.50;93.90
4518;DHT22;2271;49.464;11.070;2022-07-31T10:53:09;28.40;94.20
4518;DHT22;2271;49.464;11.070;2022-07-31T10:55:35;28.50;94.00
4518;DHT22;2271;49.464;11.070;2022-07-31T10:58:12;28.40;94.30
4518;DHT22;2271;49.464;11.070;2022-07-31T11:00:39;28.20;94.80
4518;DHT22;2271;49.464;11.070;2022-07-31T11:05:51;27.90;94.60
4518;DHT22;2271;49.464;11.070;2022-07-31T11:08:17;27.80;94.80
4518;DHT22;2271;49.464;11.070;2022-07-31T11:10:49;27.60;95.20
4518;DHT22;2271;49.464;11.070;2022-07-31T11:13:15;27.60;95.80
4518;DHT22;2271;49.464;11.070;2022-07-31T11:15:42;27.50;95.10
4518;DHT22;2271;49.464;11.070;2022-07-31T11:18:16;27.40;95.40
4518;DHT22;2271;49.464;11.070;2022-07-31T11:20:43;27.40;95.30
4518;DHT22;2271;49.464;11.070;2022-07-31T11:23:14;27.40;95.10
4518;DHT22;2271;49.464;11.070;2022-07-31T11:25:42;27.30;95.40
4518;DHT22;2271;49.464;11.070;2022-07-31T11:28:16;27.30;95.60
4518;DHT22;2271;49.464;11.070;2022-07-31T11:30:53;27.60;95.80
4518;DHT22;2271;49.464;11.070;2022-07-31T11:35:55;27.80;94.90
4518;DHT22;2271;49.464;11.070;2022-07-31T11:38:28;27.90;94.70
4518;DHT22;2271;49.464;11.070;2022-07-31T11:40:54;28.10;94.50
4518;DHT22;2271;49.464;11.070;2022-07-31T11:43:20;28.30;94.10
4518;DHT22;2271;49.464;11.070;2022-07-31T11:45:47;28.30;93.50
4518;DHT22;2271;49.464;11.070;2022-07-31T11:48:16;28.20;93.70
4518;DHT22;2271;49.464;11.070;2022-07-31T11:50:43;28.40;93.20
4518;DHT22;2271;49.464;11.070;2022-07-31T11:53:10;28.70;91.80
4518;DHT22;2271;49.464;11.070;2022-07-31T11:55:55;28.80;91.70
4518;DHT22;2271;49.464;11.070;2022-07-31T11:58:24;28.90;90.70
4518;DHT22;2271;49.464;11.070;2022-07-31T12:03:18;28.90;90.90
4518;DHT22;2271;49.464;11.070;2022-07-31T12:05:46;29.00;90.80
4518;DHT22;2271;49.464;11.070;2022-07-31T12:08:12;29.10;90.00
4518;DHT22;2271;49.464;11.070;2022-07-31T12:10:39;29.20;90.00
4518;DHT22;2271;49.464;11.070;2022-07-31T12:13:12;29.20;90.20
4518;DHT22;2271;49.464;11.070;2022-07-31T12:15:39;29.20;90.20
4518;DHT22;2271;49.464;11.070;2022-07-31T12:18:05;29.00;90.70
4518;DHT22;2271;49.464;11.070;2022-07-31T12:20:31;28.80;89.70
4518;DHT22;2271;49.464;11.070;2022-07-31T12:22:58;28.30;90.80
4518;DHT22;2271;49.464;11.070;2022-07-31T12:25:24;28.50;91.20
4518;DHT22;2271;49.464;11.070;2022-07-31T12:27:53;28.80;90.40
4518;DHT22;2271;49.464;11.070;2022-07-31T12:30:19;29.20;90.90
4518;DHT22;2271;49.464;11.070;2022-07-31T12:32:47;29.50;90.10
4518;DHT22;2271;49.464;11.070;2022-07-31T12:35:12;29.60;89.60
4518;DHT22;2271;49.464;11.070;2022-07-31T12:37:45;29.60;88.90
4518;DHT22;2271;49.464;11.070;2022-07-31T12:40:25;29.70;88.20
4518;DHT22;2271;49.464;11.070;2022-07-31T12:42:52;29.80;88.40
4518;DHT22;2271;49.464;11.070;2022-07-31T12:45:34;29.60;86.90
4518;DHT22;2271;49.464;11.070;2022-07-31T12:48:00;29.60;87.80
4518;DHT22;2271;49.464;11.070;2022-07-31T12:50:28;29.40;87.70
4518;DHT22;2271;49.464;11.070;2022-07-31T12:52:57;29.30;87.90
4518;DHT22;2271;49.464;11.070;2022-07-31T12:55:23;29.20;88.40
4518;DHT22;2271;49.464;11.070;2022-07-31T12:57:49;29.10;89.60
4518;DHT22;2271;49.464;11.070;2022-07-31T13:00:15;28.90;89.20
4518;DHT22;2271;49.464;11.070;2022-07-31T13:02:42;28.70;89.70
4518;DHT22;2271;49.464;11.070;2022-07-31T13:05:08;28.70;90.20
4518;DHT22;2271;49.464;11.070;2022-07-31T13:07:34;28.70;90.30
4518;DHT22;2271;49.464;11.070;2022-07-31T13:10:00;28.70;90.10
4518;DHT22;2271;49.464;11.070;2022-07-31T13:12:26;28.60;90.90
4518;DHT22;2271;49.464;11.070;2022-07-31T13:14:51;28.60;90.60
4518;DHT22;2271;49.464;11.070;2022-07-31T13:17:17;28.50;90.40
4518;DHT22;2271;49.464;11.070;2022-07-31T13:19:42;28.50;90.50
4518;DHT22;2271;49.464;11.070;2022-07-31T13:22:08;28.60;90.50
4518;DHT22;2271;49.464;11.070;2022-07-31T13:24:34;28.60;90.20
4518;DHT22;2271;49.464;11.070;2022-07-31T13:27:00;28.60;90.40
4518;DHT22;2271;49.464;11.070;2022-07-31T13:29:25;28.50;90.60
4518;DHT22;2271;49.464;11.070;2022-07-31T13:31:51;28.50;90.50
4518;DHT22;2271;49.464;11.070;2022-07-31T13:34:17;28.50;90.50
4518;DHT22;2271;49.464;11.070;2022-07-31T13:36:43;28.40;90.50
4518;DHT22;2271;49.464;11.070;2022-07-31T13:39:08;28.40;90.90
4518;DHT22;2271;49.464;11.070;2022-07-31T13:41:35;28.40;90.80
4518;DHT22;2271;49.464;11.070;2022-07-31T13:44:01;28.40;90.60
4518;DHT22;2271;49.464;11.070;2022-07-31T13:46:27;28.40;90.60
4518;DHT22;2271;49.464;11.070;2022-07-31T13:48:54;28.40;90.50
4518;DHT22;2271;49.464;11.070;2022-07-31T13:51:21;28.40;91.00
4518;DHT22;2271;49.464;11.070;2022-07-31T13:53:47;28.40;91.10
4518;DHT22;2271;49.464;11.070;2022-07-31T13:56:15;28.30;90.60
4518;DHT22;2271;49.464;11.070;2022-07-31T13:58:40;28.30;90.80
4518;DHT22;2271;49.464;11.070;2022-07-31T14:01:06;28.20;90.60
4518;DHT22;2271;49.464;11.070;2022-07-31T14:03:31;28.20;90.80
4518;DHT22;2271;49.464;11.070;2022-07-31T14:05:57;28.10;91.00
4518;DHT22;2271;49.464;11.070;2022-07-31T14:08:23;28.10;90.90
4518;DHT22;2271;49.464;11.070;2022-07-31T14:10:50;28.20;90.50
4518;DHT22;2271;49.464;11.070;2022-07-31T14:13:17;28.20;90.60
4518;DHT22;2271;49.464;11.070;2022-07-31T14:15:44;28.10;90.90
4518;DHT22;2271;49.464;11.070;2022-07-31T14:18:10;28.10;91.20
4518;DHT22;2271;49.464;11.070;2022-07-31T14:20:36;28.10;91.20
4518;DHT22;2271;49.464;11.070;2022-07-31T14:23:02;28.10;91.20
4518;DHT22;2271;49.464;11.070;2022-07-31T14:25:29;28.10;91.50
4518;DHT22;2271;49.464;11.070;2022-07-31T14:27:55;28.10;91.70
4518;DHT22;2271;49.464;11.070;2022-07-31T14:30:20;28.00;91.70
4518;DHT22;2271;49.464;11.070;2022-07-31T14:32:47;27.90;91.10
4518;DHT22;2271;49.464;11.070;2022-07-31T14:35:13;27.80;91.50
4518;DHT22;2271;49.464;11.070;2022-07-31T14:37:38;27.80;91.90
4518;DHT22;2271;49.464;11.070;2022-07-31T14:40:06;27.70;91.60
4518;DHT22;2271;49.464;11.070;2022-07-31T14:42:33;27.60;91.60
4518;DHT22;2271;49.464;11.070;2022-07-31T14:44:59;27.50;92.40
4518;DHT22;2271;49.464;11.070;2022-07-31T14:47:27;27.50;92.00
4518;DHT22;2271;49.464;11.070;2022-07-31T14:49:53;27.50;92.30
4518;DHT22;2271;49.464;11.070;2022-07-31T14:52:18;27.40;92.70
4518;DHT22;2271;49.464;11.070;2022-07-31T14:54:44;27.30;92.80
4518;DHT22;2271;49.464;11.070;2022-07-31T14:57:10;27.30;93.20
4518;DHT22;2271;49.464;11.070;2022-07-31T14:59:35;27.30;92.70
4518;DHT22;2271;49.464;11.070;2022-07-31T15:02:01;27.20;92.70
4518;DHT22;2271;49.464;11.070;2022-07-31T15:04:27;27.20;92.70
4518;DHT22;2271;49.464;11.070;2022-07-31T15:06:52;27.20;92.70
4518;DHT22;2271;49.464;11.070;2022-07-31T15:09:18;27.20;92.80
4518;DHT22;2271;49.464;11.070;2022-07-31T15:11:44;27.20;93.00
4518;DHT22;2271;49.464;11.070;2022-07-31T15:14:13;27.10;93.10
4518;DHT22;2271;49.464;11.070;2022-07-31T15:16:38;27.20;92.80
4518;DHT22;2271;49.464;11.070;2022-07-31T15:19:04;27.20;93.00
4518;DHT22;2271;49.464;11.070;2022-07-31T15:21:30;27.30;93.50
4518;DHT22;2271;49.464;11.070;2022-07-31T15:23:55;27.30;93.20
4518;DHT22;2271;49.464;11.070;2022-07-31T15:26:21;27.30;93.10
4518;DHT22;2271;49.464;11.070;2022-07-31T15:28:47;27.30;93.20
4518;DHT22;2271;49.464;11.070;2022-07-31T15:31:12;27.30;93.00
4518;DHT22;2271;49.464;11.070;2022-07-31T15:33:38;27.30;92.90
4518;DHT22;2271;49.464;11.070;2022-07-31T15:36:04;27.30;92.80
4518;DHT22;2271;49.464;11.070;2022-07-31T15:38:30;27.20;93.10
4518;DHT22;2271;49.464;11.070;2022-07-31T15:40:56;27.20;93.60
4518;DHT22;2271;49.464;11.070;2022-07-31T15:43:22;27.20;93.00
4518;DHT22;2271;49.464;11.070;2022-07-31T15:45:48;27.20;93.00
4518;DHT22;2271;49.464;11.070;2022-07-31T15:48:14;27.30;92.60
4518;DHT22;2271;49.464;11.070;2022-07-31T15:50:40;27.50;92.90
4518;DHT22;2271;49.464;11.070;2022-07-31T15:53:05;27.70;92.10
4518;DHT22;2271;49.464;11.070;2022-07-31T15:55:31;27.80;92.40